Time;durP1;ratioP1;P1;durP2;ratioP2;P2;SDS_P1;SDS_P2;PMS_P1;PMS_P2;Temp;Humidity;BMP_temperature;BMP_pressure;BME280_temperature;BME280_humidity;BME280_pressure;Samples;Min_cycle;Max_cycle;Signal;HPM_P1;HPM_P2
2021/12/23 00:01:15;;;;;;;29.20;16.00;;;-2.30;99.90;;;;;;5005922;28;20042;-87
2021/12/23 00:03:40;;;;;;;30.92;15.90;;;-2.30;99.90;;;;;;5005987;28;20162;-87
2021/12/23 00:06:06;;;;;;;31.15;17.20;;;-2.00;99.90;;;;;;5006305;28;20038;-87
2021/12/23 00:08:33;;;;;;;32.35;17.48;;;-2.20;99.90;;;;;;5005939;28;20085;-87
2021/12/23 00:10:59;;;;;;;27.38;15.57;;;-2.20;99.90;;;;;;5006286;28;20050;-87
2021/12/23 00:13:25;;;;;;;31.88;17.05;;;-2.20;99.90;;;;;;4989632;28;20502;-87
2021/12/23 00:18:42;;;;;;;25.60;15.90;;;-2.10;99.90;;;;;;5004041;28;20046;-87
2021/12/23 00:23:52;;;;;;;31.83;15.88;;;-2.10;99.90;;;;;;4976086;28;20038;-87
2021/12/23 00:26:19;;;;;;;31.48;16.33;;;-2.10;99.90;;;;;;5005742;28;20136;-87
2021/12/23 00:28:44;;;;;;;33.97;17.50;;;-2.10;99.90;;;;;;4989497;28;20039;-87
2021/12/23 00:31:10;;;;;;;30.65;15.93;;;-2.10;99.90;;;;;;4989204;28;20138;-87
2021/12/23 00:33:39;;;;;;;27.90;15.32;;;-2.10;99.90;;;;;;4978166;28;20462;-87
2021/12/23 00:36:07;;;;;;;25.17;13.40;;;-1.20;99.90;;;;;;4976123;28;20480;-87
2021/12/23 00:38:37;;;;;;;29.45;16.75;;;-0.80;99.90;;;;;;4972968;28;20064;-87
2021/12/23 00:41:04;;;;;;;25.80;14.90;;;-1.90;99.90;;;;;;5005473;28;20426;-87
2021/12/23 00:43:33;;;;;;;29.02;16.20;;;-1.90;99.90;;;;;;5004018;28;20100;-87
2021/12/23 00:45:59;;;;;;;26.42;16.20;;;-1.90;99.90;;;;;;5004988;28;20166;-87
2021/12/23 00:48:25;;;;;;;25.65;14.52;;;-1.90;99.90;;;;;;5004769;28;20042;-87
2021/12/23 00:50:51;;;;;;;25.27;15.45;;;-1.90;99.90;;;;;;5020622;28;20039;-87
2021/12/23 00:53:19;;;;;;;28.48;16.05;;;-1.90;99.90;;;;;;5005390;28;20076;-87
2021/12/23 00:55:52;;;;;;;30.80;17.00;;;-1.90;99.90;;;;;;4972581;28;20479;-87
2021/12/23 00:58:18;;;;;;;31.90;15.63;;;-1.90;99.90;;;;;;4970518;28;20077;-87
2021/12/23 01:00:45;;;;;;;25.52;14.52;;;-1.10;99.90;;;;;;4985397;28;20092;-87
2021/12/23 01:03:11;;;;;;;26.77;14.85;;;-1.90;99.90;;;;;;5003960;28;20055;-87
2021/12/23 01:05:37;;;;;;;27.73;14.63;;;-1.80;99.90;;;;;;4988457;28;20530;-87
2021/12/23 01:08:03;;;;;;;25.25;13.27;;;-1.60;99.90;;;;;;4987790;28;20042;-87
2021/12/23 01:10:29;;;;;;;22.73;12.27;;;-1.80;99.90;;;;;;5021653;28;20038;-87
2021/12/23 01:13:00;;;;;;;24.35;14.25;;;-1.80;99.90;;;;;;4988233;28;20038;-87
2021/12/23 01:18:06;;;;;;;26.92;14.60;;;-0.80;99.90;;;;;;5021143;28;20052;-87
2021/12/23 01:20:34;;;;;;;22.30;13.43;;;-1.70;99.90;;;;;;5004809;28;20039;-87
2021/12/23 01:23:09;;;;;;;28.27;15.77;;;-1.70;99.90;;;;;;5004686;28;20117;-88
2021/12/23 01:25:38;;;;;;;26.40;15.45;;;-1.70;99.90;;;;;;5020468;28;20034;-87
2021/12/23 01:28:05;;;;;;;23.08;13.45;;;-1.70;99.90;;;;;;5020793;28;20096;-87
2021/12/23 01:30:31;;;;;;;23.17;14.30;;;-1.70;99.90;;;;;;4988209;28;20043;-86
2021/12/23 01:32:58;;;;;;;27.42;15.15;;;-1.70;99.90;;;;;;5017742;28;20085;-87
2021/12/23 01:35:26;;;;;;;22.77;13.65;;;-1.70;99.90;;;;;;5020829;28;20473;-87
2021/12/23 01:37:53;;;;;;;26.33;14.35;;;-1.70;99.90;;;;;;4972030;28;20116;-87
2021/12/23 01:40:20;;;;;;;24.30;14.13;;;-1.60;99.90;;;;;;5003992;28;20418;-87
2021/12/23 01:42:47;;;;;;;23.73;13.98;;;-1.60;99.90;;;;;;4972196;28;20141;-87
2021/12/23 01:45:20;;;;;;;23.98;14.25;;;-1.60;99.90;;;;;;5001682;28;20051;-87
2021/12/23 01:47:46;;;;;;;23.20;14.02;;;-1.60;99.90;;;;;;4971866;28;20046;-87
2021/12/23 01:50:15;;;;;;;26.77;15.18;;;-0.90;99.90;;;;;;5003569;28;20034;-87
2021/12/23 01:52:41;;;;;;;23.67;13.20;;;-1.60;99.90;;;;;;5003834;28;20049;-87
2021/12/23 01:55:09;;;;;;;26.23;14.88;;;-1.60;99.90;;;;;;4971419;28;20046;-87
2021/12/23 01:57:36;;;;;;;25.20;15.18;;;-1.60;99.90;;;;;;4971107;28;20030;-87
2021/12/23 02:00:07;;;;;;;28.20;15.07;;;-1.60;99.90;;;;;;5004020;28;20125;-87
2021/12/23 02:02:33;;;;;;;23.83;14.60;;;-1.60;99.90;;;;;;5017642;28;20546;-87
2021/12/23 02:04:59;;;;;;;24.45;14.55;;;-1.70;99.90;;;;;;4985501;28;20085;-87
2021/12/23 02:07:24;;;;;;;26.42;15.13;;;-1.70;99.90;;;;;;4994607;28;20043;-87
2021/12/23 02:09:50;;;;;;;25.50;15.23;;;-0.30;99.90;;;;;;4984104;28;20034;-87
2021/12/23 02:12:17;;;;;;;25.95;15.43;;;-1.70;99.90;;;;;;4988704;28;20130;-87
2021/12/23 02:14:43;;;;;;;25.42;14.75;;;-1.70;99.90;;;;;;5019270;28;20050;-87
2021/12/23 02:17:09;;;;;;;24.20;14.50;;;-1.70;99.90;;;;;;4969333;28;20054;-87
2021/12/23 02:19:35;;;;;;;23.52;13.57;;;-1.70;99.90;;;;;;5002124;28;20050;-87
2021/12/23 02:22:01;;;;;;;25.55;15.05;;;-1.70;99.90;;;;;;4982376;28;20178;-87
2021/12/23 02:24:26;;;;;;;24.80;14.38;;;-1.70;99.90;;;;;;5002566;28;20034;-87
2021/12/23 02:26:52;;;;;;;23.48;14.48;;;-1.70;99.90;;;;;;4985565;28;20431;-87
2021/12/23 02:29:18;;;;;;;25.23;15.38;;;-1.70;99.90;;;;;;4970192;28;20476;-87
2021/12/23 02:31:49;;;;;;;27.30;14.80;;;-1.70;99.90;;;;;;4984837;28;20069;-87
2021/12/23 02:34:19;;;;;;;32.85;16.50;;;-1.70;99.90;;;;;;4985849;28;20038;-87
2021/12/23 02:36:57;;;;;;;23.58;14.35;;;-1.70;99.90;;;;;;4985498;28;20092;-87
2021/12/23 02:39:24;;;;;;;24.05;14.60;;;-1.80;99.90;;;;;;4969508;28;20113;-87
2021/12/23 02:41:54;;;;;;;26.88;15.45;;;-0.80;99.90;;;;;;4969646;28;20081;-87
2021/12/23 02:44:20;;;;;;;27.33;15.00;;;-1.80;99.90;;;;;;4970588;28;20076;-87
2021/12/23 02:46:46;;;;;;;23.30;13.55;;;-1.80;99.90;;;;;;5018222;28;20080;-86
2021/12/23 02:49:13;;;;;;;28.05;15.00;;;-1.80;99.90;;;;;;5001620;28;20082;-86
2021/12/23 02:51:39;;;;;;;24.35;13.65;;;-1.80;99.90;;;;;;5001883;28;20038;-86
2021/12/23 02:54:05;;;;;;;24.27;14.50;;;-1.80;99.90;;;;;;5002192;28;20053;-87
2021/12/23 02:56:32;;;;;;;27.65;15.60;;;-1.80;99.90;;;;;;4968772;28;20046;-87
2021/12/23 02:58:57;;;;;;;23.08;14.30;;;-1.70;99.90;;;;;;4969626;28;20573;-86
2021/12/23 03:01:24;;;;;;;26.40;15.00;;;-1.70;99.90;;;;;;5002415;28;20034;-86
2021/12/23 03:03:51;;;;;;;24.40;14.05;;;-1.20;99.90;;;;;;4981960;28;20050;-87
2021/12/23 03:06:18;;;;;;;23.90;14.27;;;-1.70;99.90;;;;;;4970814;28;20642;-88
2021/12/23 03:08:51;;;;;;;26.83;13.82;;;-0.30;99.90;;;;;;4970895;28;20049;-88
2021/12/23 03:11:21;;;;;;;24.13;13.50;;;-1.70;99.90;;;;;;4969672;28;20408;-88
2021/12/23 03:13:48;;;;;;;24.52;13.85;;;-1.70;99.90;;;;;;5020097;28;20034;-88
2021/12/23 03:16:18;;;;;;;25.60;14.13;;;-1.60;99.90;;;;;;5006458;28;20042;-88
2021/12/23 03:18:44;;;;;;;20.67;12.82;;;-1.60;99.90;;;;;;4990356;28;20149;-87
2021/12/23 03:21:10;;;;;;;23.90;13.23;;;-1.60;99.90;;;;;;5004232;28;20030;-88
2021/12/23 03:23:36;;;;;;;21.52;13.07;;;-1.60;99.90;;;;;;4974107;28;20601;-88
2021/12/23 03:26:03;;;;;;;26.33;14.43;;;-1.60;99.90;;;;;;4974255;28;20038;-88
2021/12/23 03:28:28;;;;;;;24.50;14.82;;;-1.60;99.90;;;;;;5006823;28;20089;-88
2021/12/23 03:30:54;;;;;;;25.65;14.30;;;-1.50;99.90;;;;;;5023782;28;20061;-87
2021/12/23 03:33:20;;;;;;;23.63;14.00;;;-1.50;99.90;;;;;;4972793;28;20544;-87
2021/12/23 03:35:47;;;;;;;24.55;14.55;;;-1.50;99.90;;;;;;5006754;28;20060;-88
2021/12/23 03:38:14;;;;;;;23.90;13.88;;;-1.50;99.90;;;;;;5006226;28;20042;-87
2021/12/23 03:40:40;;;;;;;24.35;14.38;;;-1.50;99.90;;;;;;4990651;28;20451;-87
2021/12/23 03:43:06;;;;;;;23.92;14.38;;;-1.60;99.90;;;;;;4988647;28;20054;-87
2021/12/23 03:45:32;;;;;;;23.77;13.98;;;-1.50;99.90;;;;;;5002834;28;20034;-87
2021/12/23 03:47:58;;;;;;;21.23;12.88;;;-1.50;99.90;;;;;;5029570;28;20038;-88
2021/12/23 03:50:25;;;;;;;25.15;14.15;;;0.10;99.90;;;;;;5008578;28;20121;-88
2021/12/23 03:52:52;;;;;;;24.98;14.52;;;-1.40;99.90;;;;;;5001301;28;20085;-88
2021/12/23 03:55:18;;;;;;;22.42;13.93;;;-0.40;99.90;;;;;;5021685;28;20051;-88
2021/12/23 03:57:46;;;;;;;25.15;13.95;;;-1.50;99.90;;;;;;5005480;28;20077;-88
2021/12/23 04:00:14;;;;;;;23.45;14.27;;;-0.50;99.90;;;;;;4990361;28;20042;-88
2021/12/23 04:02:40;;;;;;;23.13;14.15;;;-1.50;99.90;;;;;;5006502;28;20053;-88
2021/12/23 04:05:07;;;;;;;21.58;13.60;;;-1.50;99.90;;;;;;4989758;28;20046;-88
2021/12/23 04:07:34;;;;;;;22.67;14.10;;;-1.50;99.90;;;;;;4973460;28;20042;-88
2021/12/23 04:09:59;;;;;;;24.17;13.88;;;-1.50;99.90;;;;;;5006188;28;20098;-88
2021/12/23 04:12:25;;;;;;;24.92;14.60;;;-0.10;99.90;;;;;;4989862;28;20503;-88
2021/12/23 04:14:51;;;;;;;27.73;13.90;;;-1.50;99.90;;;;;;5003774;28;20047;-88
2021/12/23 04:17:17;;;;;;;24.83;13.20;;;-1.50;99.90;;;;;;4973268;28;20129;-88
2021/12/23 04:19:44;;;;;;;27.58;14.73;;;-1.50;99.90;;;;;;4989518;28;20038;-88
2021/12/23 04:22:10;;;;;;;23.45;13.75;;;-1.50;99.90;;;;;;4973439;28;20554;-87
2021/12/23 04:24:35;;;;;;;23.83;14.23;;;-1.50;99.90;;;;;;5005248;28;20031;-87
2021/12/23 04:27:01;;;;;;;26.92;13.60;;;-1.50;99.90;;;;;;5005650;28;20038;-87
2021/12/23 04:29:27;;;;;;;23.73;14.32;;;-1.40;99.90;;;;;;5005020;28;20053;-87
2021/12/23 04:31:53;;;;;;;26.20;15.05;;;-1.40;99.90;;;;;;4944625;28;20078;-88
2021/12/23 04:34:18;;;;;;;25.48;14.57;;;-0.10;99.90;;;;;;5019544;28;20042;-88
2021/12/23 04:36:44;;;;;;;22.60;13.57;;;-1.40;99.90;;;;;;4973334;28;20041;-88
2021/12/23 04:39:10;;;;;;;26.40;14.02;;;-1.40;99.90;;;;;;4989541;28;20499;-88
2021/12/23 04:41:38;;;;;;;24.50;14.20;;;-0.50;99.90;;;;;;5005188;28;20487;-88
2021/12/23 04:44:04;;;;;;;24.55;15.38;;;-1.40;99.90;;;;;;5003882;28;20118;-88
2021/12/23 04:46:29;;;;;;;24.25;13.43;;;-1.40;99.90;;;;;;4973055;28;20215;-88
2021/12/23 04:48:55;;;;;;;26.05;14.63;;;-1.40;99.90;;;;;;4987957;28;20030;-87
2021/12/23 04:51:21;;;;;;;21.65;13.65;;;-1.40;99.90;;;;;;5005008;28;20034;-87
2021/12/23 04:53:47;;;;;;;21.33;14.35;;;-1.50;99.90;;;;;;4988752;28;20057;-88
2021/12/23 04:56:14;;;;;;;24.65;13.73;;;-1.40;99.90;;;;;;5004972;28;20092;-88
2021/12/23 04:58:40;;;;;;;23.33;14.70;;;-1.30;99.90;;;;;;4972424;28;20582;-88
2021/12/23 05:01:08;;;;;;;24.02;14.02;;;-1.30;99.90;;;;;;5005045;28;20043;-88
2021/12/23 05:03:34;;;;;;;26.08;13.98;;;-1.30;99.90;;;;;;5021350;28;20057;-88
2021/12/23 05:06:00;;;;;;;24.05;14.27;;;-1.40;99.90;;;;;;5004706;28;20054;-87
2021/12/23 05:08:26;;;;;;;24.33;14.10;;;-1.30;99.90;;;;;;5005057;28;20043;-88
2021/12/23 05:10:52;;;;;;;29.08;15.30;;;-1.30;99.90;;;;;;5003590;28;20555;-88
2021/12/23 05:13:17;;;;;;;28.20;15.18;;;-1.30;99.90;;;;;;4989057;28;20045;-88
2021/12/23 05:15:43;;;;;;;31.27;14.73;;;0.20;99.90;;;;;;5004410;28;20038;-87
2021/12/23 05:18:09;;;;;;;27.08;15.07;;;-1.30;99.90;;;;;;5004654;28;20138;-87
2021/12/23 05:20:35;;;;;;;24.35;14.65;;;-1.30;99.90;;;;;;5004720;28;20086;-87
2021/12/23 05:23:01;;;;;;;24.60;15.25;;;-1.30;99.90;;;;;;4988095;28;20033;-87
2021/12/23 05:25:27;;;;;;;24.20;14.15;;;-1.20;99.90;;;;;;4986884;28;20046;-87
2021/12/23 05:27:54;;;;;;;24.05;15.07;;;-1.20;99.90;;;;;;4988196;28;20511;-88
2021/12/23 05:30:21;;;;;;;25.73;14.57;;;-1.20;99.90;;;;;;4972437;28;20513;-88
2021/12/23 05:32:47;;;;;;;25.05;14.07;;;-1.20;99.90;;;;;;4971852;28;20412;-87
2021/12/23 05:35:16;;;;;;;26.92;15.18;;;-1.20;99.90;;;;;;4971858;28;20668;-87
2021/12/23 05:37:42;;;;;;;25.58;13.85;;;-1.20;99.90;;;;;;4987526;28;20470;-87
2021/12/23 05:40:10;;;;;;;25.13;14.27;;;0.20;99.90;;;;;;4972137;28;20038;-87
2021/12/23 05:42:36;;;;;;;24.77;13.57;;;-1.10;99.90;;;;;;4971959;28;20050;-87
2021/12/23 05:45:02;;;;;;;24.73;13.98;;;-1.10;99.90;;;;;;5004161;28;20034;-87
2021/12/23 05:47:28;;;;;;;22.05;13.77;;;-1.20;99.90;;;;;;4971624;28;20046;-87
2021/12/23 05:49:54;;;;;;;29.67;14.18;;;-1.10;99.90;;;;;;4959284;28;20038;-87
2021/12/23 05:52:19;;;;;;;20.80;12.23;;;-1.10;99.90;;;;;;5004345;28;20481;-87
2021/12/23 05:54:45;;;;;;;25.83;14.93;;;-1.10;99.90;;;;;;5003947;28;20034;-87
2021/12/23 05:57:11;;;;;;;25.15;14.35;;;-0.60;99.90;;;;;;5003655;28;20121;-87
2021/12/23 05:59:37;;;;;;;26.38;13.75;;;-1.10;99.90;;;;;;5003993;28;20042;-87
2021/12/23 06:02:05;;;;;;;20.98;12.75;;;-1.10;99.90;;;;;;5004249;28;20471;-87
2021/12/23 06:04:32;;;;;;;29.70;15.32;;;-1.10;99.90;;;;;;5003838;28;20078;-87
2021/12/23 06:06:58;;;;;;;30.58;15.38;;;0.20;99.90;;;;;;4987716;28;20038;-87
2021/12/23 06:09:23;;;;;;;30.17;15.38;;;-1.10;99.90;;;;;;5003903;28;20100;-87
2021/12/23 06:11:49;;;;;;;25.98;14.55;;;0.30;99.90;;;;;;5003844;28;20176;-87
2021/12/23 06:14:16;;;;;;;22.30;13.85;;;-1.10;99.90;;;;;;5003555;28;20045;-87
2021/12/23 06:16:43;;;;;;;21.98;13.73;;;-1.10;99.90;;;;;;4970921;28;20073;-88
2021/12/23 06:19:09;;;;;;;24.15;13.57;;;-1.10;99.90;;;;;;4971408;28;20493;-87
2021/12/23 06:21:35;;;;;;;28.00;15.80;;;-1.10;99.90;;;;;;4986830;28;20117;-87
2021/12/23 06:24:03;;;;;;;27.60;15.05;;;-1.10;99.90;;;;;;5003666;28;20069;-87
2021/12/23 06:26:29;;;;;;;26.73;14.77;;;-1.10;99.90;;;;;;5019869;28;20042;-87
2021/12/23 06:28:55;;;;;;;28.95;15.38;;;-0.40;99.90;;;;;;5003107;28;20117;-87
2021/12/23 06:31:21;;;;;;;26.83;15.57;;;-1.00;99.90;;;;;;5020299;28;20470;-87
2021/12/23 06:33:47;;;;;;;27.30;15.93;;;-1.00;99.90;;;;;;4971162;28;20027;-87
2021/12/23 06:36:17;;;;;;;24.60;15.23;;;-1.00;99.90;;;;;;5002134;28;20595;-87
2021/12/23 06:38:44;;;;;;;27.48;16.05;;;-1.00;99.90;;;;;;4986348;28;20053;-87
2021/12/23 06:41:10;;;;;;;26.17;15.77;;;-1.00;99.90;;;;;;5003242;28;20057;-87
2021/12/23 06:43:36;;;;;;;27.52;15.50;;;-1.00;99.90;;;;;;5003582;28;20487;-88
2021/12/23 06:46:03;;;;;;;27.65;15.50;;;0.10;99.90;;;;;;5003173;28;20099;-87
2021/12/23 06:48:32;;;;;;;32.33;15.38;;;-1.00;99.90;;;;;;5004318;28;20038;-87
2021/12/23 06:50:59;;;;;;;29.23;16.30;;;-1.00;99.90;;;;;;5007341;28;20051;-87
2021/12/23 06:53:26;;;;;;;29.42;16.70;;;-1.00;99.90;;;;;;4991554;28;20100;-87
2021/12/23 06:55:52;;;;;;;29.95;16.52;;;-1.00;99.90;;;;;;4975022;28;20077;-87
2021/12/23 06:58:23;;;;;;;27.92;15.38;;;-1.00;99.90;;;;;;5007331;28;20046;-87
2021/12/23 07:00:52;;;;;;;26.48;15.38;;;0.40;99.90;;;;;;5023735;28;20220;-87
2021/12/23 07:03:19;;;;;;;24.60;14.60;;;-1.00;99.90;;;;;;5007106;28;20092;-87
2021/12/23 07:05:45;;;;;;;29.50;15.32;;;-1.00;99.90;;;;;;4974280;28;20507;-88
2021/12/23 07:08:25;;;;;;;29.40;15.35;;;-1.00;99.90;;;;;;4990808;28;20038;-88
2021/12/23 07:10:50;;;;;;;33.65;16.58;;;-0.90;99.90;;;;;;4974161;28;20432;-88
2021/12/23 07:13:16;;;;;;;26.77;16.88;;;0.30;99.90;;;;;;4991201;28;20049;-88
2021/12/23 07:15:42;;;;;;;29.70;16.88;;;0.60;99.90;;;;;;4974184;28;20049;-87
2021/12/23 07:18:08;;;;;;;28.38;16.27;;;-0.90;99.90;;;;;;5007051;28;20061;-87
2021/12/23 07:20:34;;;;;;;31.13;17.42;;;0.40;99.90;;;;;;5006689;28;20046;-87
2021/12/23 07:23:00;;;;;;;28.27;15.98;;;-0.80;99.90;;;;;;5006797;28;20120;-87
2021/12/23 07:25:26;;;;;;;30.67;17.05;;;0.10;99.90;;;;;;5006556;28;20504;-87
2021/12/23 07:27:52;;;;;;;27.88;16.30;;;-0.80;99.90;;;;;;5013347;28;20045;-87
2021/12/23 07:30:20;;;;;;;29.23;16.27;;;0.60;99.90;;;;;;5006155;28;20165;-88
2021/12/23 07:32:47;;;;;;;28.25;17.10;;;0.60;99.90;;;;;;5007768;28;20044;-91
2021/12/23 07:35:14;;;;;;;28.20;16.65;;;-0.80;99.90;;;;;;5006503;28;20046;-88
2021/12/23 07:37:41;;;;;;;29.08;17.05;;;-0.80;99.90;;;;;;4990028;28;20042;-87
2021/12/23 07:40:07;;;;;;;32.05;16.52;;;-0.70;99.90;;;;;;4980747;28;20161;-87
2021/12/23 07:42:34;;;;;;;31.40;16.83;;;-0.80;99.90;;;;;;5007458;28;20034;-88
2021/12/23 07:45:02;;;;;;;32.03;15.95;;;-0.80;99.90;;;;;;5022528;28;20069;-87
2021/12/23 07:47:29;;;;;;;31.25;17.48;;;-0.80;99.90;;;;;;5004513;28;20038;-87
2021/12/23 07:49:55;;;;;;;28.08;16.27;;;-0.80;99.90;;;;;;4974637;28;20038;-88
2021/12/23 07:52:22;;;;;;;28.15;16.23;;;-0.10;99.90;;;;;;4982312;28;20045;-86
2021/12/23 07:54:47;;;;;;;32.30;17.10;;;-0.40;99.90;;;;;;5001703;28;20045;-85
2021/12/23 07:57:13;;;;;;;28.65;17.27;;;-0.80;99.90;;;;;;5021952;28;20157;-85
2021/12/23 07:59:39;;;;;;;31.13;17.15;;;-0.80;99.90;;;;;;4988195;28;20113;-87
2021/12/23 08:02:05;;;;;;;34.50;18.85;;;-0.80;99.90;;;;;;5006265;28;20034;-85
2021/12/23 08:04:33;;;;;;;31.08;16.55;;;-0.80;99.90;;;;;;4989187;28;20031;-85
2021/12/23 08:07:02;;;;;;;31.17;16.75;;;-0.70;99.90;;;;;;5006421;28;20041;-88
2021/12/23 08:09:28;;;;;;;31.27;18.40;;;-0.70;99.90;;;;;;5006306;28;20053;-87
2021/12/23 08:11:54;;;;;;;32.60;17.02;;;-0.70;99.90;;;;;;5019507;28;20085;-87
2021/12/23 08:14:20;;;;;;;36.33;18.50;;;-0.70;99.90;;;;;;4989589;28;20054;-86
2021/12/23 08:16:47;;;;;;;32.22;17.25;;;-0.10;99.90;;;;;;5015268;28;20050;-88
2021/12/23 08:19:13;;;;;;;30.20;17.10;;;-0.70;99.90;;;;;;5004950;28;20537;-89
2021/12/23 08:21:39;;;;;;;35.55;16.35;;;0.50;99.90;;;;;;5022110;28;20030;-83
2021/12/23 08:24:04;;;;;;;31.85;18.83;;;-0.70;99.90;;;;;;4989991;28;20693;-85
2021/12/23 08:26:39;;;;;;;30.48;17.75;;;-0.70;99.90;;;;;;5005896;28;20034;-83
2021/12/23 08:29:04;;;;;;;32.13;18.02;;;-0.70;99.90;;;;;;4974062;28;20112;-85
2021/12/23 08:31:33;;;;;;;35.00;18.50;;;-0.60;99.90;;;;;;4991189;28;20073;-85
2021/12/23 08:33:58;;;;;;;34.58;18.80;;;-0.60;99.90;;;;;;5006341;28;20035;-83
2021/12/23 08:36:25;;;;;;;33.50;17.48;;;-0.60;99.90;;;;;;5007026;28;20056;-83
2021/12/23 08:38:51;;;;;;;31.98;16.90;;;-0.60;99.90;;;;;;5003695;28;20168;-83
2021/12/23 08:41:17;;;;;;;31.95;18.77;;;-0.60;99.90;;;;;;4973012;28;20294;-83
2021/12/23 08:43:44;;;;;;;33.78;18.92;;;-0.50;99.90;;;;;;5022119;28;20053;-84
2021/12/23 08:46:10;;;;;;;37.38;19.75;;;-0.50;99.90;;;;;;5001378;28;20049;-87
2021/12/23 08:48:37;;;;;;;34.30;18.30;;;-0.50;99.90;;;;;;4990779;28;20042;-86
2021/12/23 08:51:03;;;;;;;39.15;19.65;;;0.00;99.90;;;;;;4959937;28;20053;-87
2021/12/23 08:53:29;;;;;;;34.20;19.27;;;-0.50;99.90;;;;;;4974665;28;20050;-84
2021/12/23 08:55:55;;;;;;;37.75;19.83;;;-0.50;99.90;;;;;;5005598;28;20575;-83
2021/12/23 08:58:21;;;;;;;38.15;21.02;;;-0.50;99.90;;;;;;5005054;28;20057;-84
2021/12/23 09:00:47;;;;;;;39.50;19.42;;;0.70;99.90;;;;;;4989214;28;20335;-84
2021/12/23 09:03:13;;;;;;;38.05;20.30;;;-0.50;99.90;;;;;;5022305;28;20042;-86
2021/12/23 09:05:40;;;;;;;38.55;19.98;;;-0.60;99.90;;;;;;4973518;28;20046;-86
2021/12/23 09:08:06;;;;;;;36.13;19.98;;;-0.50;99.90;;;;;;5003127;28;20039;-85
2021/12/23 09:10:33;;;;;;;42.47;21.67;;;-0.50;99.90;;;;;;4983468;28;20043;-86
2021/12/23 09:13:01;;;;;;;44.38;21.25;;;-0.50;99.90;;;;;;5017795;28;20073;-87
2021/12/23 09:15:27;;;;;;;46.35;22.20;;;-0.60;99.90;;;;;;4960503;28;20049;-85
2021/12/23 09:17:53;;;;;;;42.30;21.70;;;-0.50;99.90;;;;;;4946302;28;20058;-86
2021/12/23 09:20:22;;;;;;;42.97;21.80;;;-0.50;99.90;;;;;;4981534;28;20495;-86
2021/12/23 09:22:49;;;;;;;41.85;22.42;;;0.10;99.90;;;;;;4986361;28;20034;-84
2021/12/23 09:25:24;;;;;;;42.60;23.10;;;-0.50;99.90;;;;;;5008984;28;20039;-83
2021/12/23 09:28:03;;;;;;;42.53;23.33;;;-0.50;99.90;;;;;;4963102;28;20098;-82
2021/12/23 09:33:15;;;;;;;46.70;22.48;;;-0.50;99.90;;;;;;5011964;28;20210;-84
2021/12/23 09:35:40;;;;;;;43.60;22.42;;;-0.50;99.90;;;;;;4963940;28;20125;-84
2021/12/23 09:38:07;;;;;;;46.10;22.90;;;-0.60;99.90;;;;;;5012423;28;20129;-84
2021/12/23 09:40:34;;;;;;;46.30;23.02;;;-0.60;99.90;;;;;;4996054;28;20038;-85
2021/12/23 09:43:08;;;;;;;55.60;23.02;;;-0.60;99.90;;;;;;5012220;28;20411;-85
2021/12/23 09:45:35;;;;;;;41.80;22.20;;;-0.60;99.90;;;;;;5012668;28;20039;-84
2021/12/23 09:48:02;;;;;;;45.47;21.80;;;-0.60;99.90;;;;;;4963881;28;20046;-84
2021/12/23 09:50:33;;;;;;;46.83;24.48;;;-0.60;99.90;;;;;;4964199;28;20081;-84
2021/12/23 09:53:01;;;;;;;47.80;22.45;;;-0.60;99.90;;;;;;5012194;28;20511;-85
2021/12/23 09:55:27;;;;;;;51.28;23.77;;;-0.60;99.90;;;;;;5011954;28;20090;-85
2021/12/23 09:57:55;;;;;;;48.45;23.23;;;-0.50;99.90;;;;;;5012189;28;20540;-84
2021/12/23 10:00:26;;;;;;;48.30;24.77;;;-0.50;99.90;;;;;;4962969;28;20117;-85
2021/12/23 10:02:53;;;;;;;47.35;24.52;;;-0.50;99.90;;;;;;4961900;28;20042;-84
2021/12/23 10:05:21;;;;;;;47.33;24.40;;;-0.50;99.90;;;;;;4963295;28;20570;-85
2021/12/23 10:07:48;;;;;;;48.78;23.75;;;-0.20;99.90;;;;;;5012164;28;20045;-83
2021/12/23 10:10:22;;;;;;;52.17;24.13;;;-0.50;99.90;;;;;;5011000;28;20455;-84
2021/12/23 10:33:46;;;;;;;52.70;26.17;;;-0.50;99.90;;;;;;5007392;28;20490;-85
2021/12/23 10:38:49;;;;;;;52.22;26.17;;;-0.40;99.90;;;;;;4962380;28;20050;-86
2021/12/23 10:41:24;;;;;;;45.60;23.23;;;-0.40;99.90;;;;;;5007501;28;20128;-86
2021/12/23 10:43:58;;;;;;;55.95;26.92;;;-0.30;99.90;;;;;;4993542;28;20399;-86
2021/12/23 10:46:31;;;;;;;55.03;24.52;;;0.90;99.90;;;;;;4992532;28;20042;-86
2021/12/23 10:49:20;;;;;;;48.60;22.88;;;-0.30;99.90;;;;;;4995484;28;20503;-86
2021/12/23 10:52:03;;;;;;;49.83;25.23;;;-0.30;99.90;;;;;;4962893;28;20045;-86
2021/12/23 11:00:21;;;;;;;56.38;26.02;;;-0.30;99.90;;;;;;5009832;28;20054;-84
2021/12/23 11:03:10;;;;;;;47.95;24.75;;;-0.30;99.90;;;;;;4960757;28;20070;-85
2021/12/23 11:05:47;;;;;;;54.55;26.40;;;-0.30;99.90;;;;;;4995109;28;20141;-84
2021/12/23 11:08:25;;;;;;;53.00;25.33;;;-0.30;99.90;;;;;;4992901;28;20823;-83
2021/12/23 11:36:04;;;;;;;65.00;28.60;;;-0.30;99.90;;;;;;5013307;28;20050;-84
2021/12/23 11:41:17;;;;;;;56.45;29.48;;;-0.30;99.90;;;;;;4965128;28;20054;-84
2021/12/23 11:46:10;;;;;;;56.40;29.00;;;-0.20;99.90;;;;;;5008006;28;20046;-83
2021/12/23 11:48:41;;;;;;;72.72;30.27;;;-0.30;99.90;;;;;;4958144;28;20537;-84
2021/12/23 11:51:14;;;;;;;59.08;27.70;;;-0.30;99.90;;;;;;5007072;28;20050;-84
2021/12/23 11:53:40;;;;;;;64.75;29.15;;;-0.30;99.90;;;;;;4943571;28;20129;-84
2021/12/23 11:56:09;;;;;;;65.50;30.60;;;-0.20;99.90;;;;;;4990591;28;20538;-84
2021/12/23 11:58:41;;;;;;;59.35;28.98;;;-0.20;99.90;;;;;;4958313;28;20053;-86
2021/12/23 12:01:14;;;;;;;56.65;26.58;;;-0.20;99.90;;;;;;4984886;28;20377;-84
2021/12/23 12:03:50;;;;;;;;;;;-0.20;99.90;;;;;;4989859;28;20073;-85
2021/12/23 12:06:18;;;;;;;56.38;27.80;;;0.00;99.90;;;;;;4974788;28;19918;-85
2021/12/23 12:08:45;;;;;;;51.10;26.75;;;-0.20;99.90;;;;;;4989895;28;20502;-85
2021/12/23 12:11:20;;;;;;;56.67;27.05;;;0.50;99.90;;;;;;4973822;28;20751;-84
2021/12/23 12:13:46;;;;;;;61.63;27.60;;;-0.20;99.90;;;;;;4961022;28;20042;-85
2021/12/23 12:16:30;;;;;;;63.85;28.92;;;1.20;99.90;;;;;;5015044;28;20054;-85
2021/12/23 12:18:57;;;;;;;61.10;28.05;;;-0.20;99.90;;;;;;4997293;28;20124;-84
2021/12/23 12:21:31;;;;;;;65.63;27.90;;;0.00;99.90;;;;;;4998514;28;20034;-83
2021/12/23 12:24:14;;;;;;;58.03;29.27;;;-0.20;99.90;;;;;;5009493;28;20038;-85
2021/12/23 12:26:55;;;;;;;60.30;27.55;;;-0.10;99.90;;;;;;5004865;28;20047;-84
2021/12/23 12:29:31;;;;;;;61.20;29.05;;;1.40;99.90;;;;;;4995140;28;20499;-84
2021/12/23 12:31:57;;;;;;;55.20;28.55;;;0.90;99.90;;;;;;5022343;28;20034;-83
2021/12/23 12:34:30;;;;;;;63.72;30.25;;;1.10;99.90;;;;;;5007142;28;20521;-85
2021/12/23 12:36:58;;;;;;;56.33;27.40;;;-0.10;99.90;;;;;;5026324;28;20037;-84
2021/12/23 12:39:47;;;;;;;62.50;27.02;;;-0.10;99.90;;;;;;5005712;28;20125;-85
2021/12/23 12:42:32;;;;;;;65.22;29.98;;;-0.10;99.90;;;;;;5020665;28;20042;-85
2021/12/23 12:45:08;;;;;;;60.72;27.67;;;-0.10;99.90;;;;;;5018201;28;20116;-83
2021/12/23 12:47:39;;;;;;;65.80;29.17;;;0.40;99.90;;;;;;4972683;28;20129;-85
2021/12/23 12:50:12;;;;;;;59.50;27.48;;;-0.10;99.90;;;;;;4994153;28;20073;-83
2021/12/23 12:52:42;;;;;;;55.25;25.35;;;0.00;99.90;;;;;;4994788;28;20077;-83
2021/12/23 12:55:18;;;;;;;64.45;28.95;;;0.00;99.90;;;;;;4962219;28;20125;-84
2021/12/23 12:57:53;;;;;;;63.15;29.23;;;0.00;99.90;;;;;;4961129;28;20038;-85
2021/12/23 13:00:35;;;;;;;60.90;29.02;;;0.00;99.90;;;;;;4992737;28;20038;-85
2021/12/23 13:03:22;;;;;;;57.72;27.65;;;0.00;99.90;;;;;;4977685;28;20117;-85
2021/12/23 13:05:53;;;;;;;60.38;28.38;;;0.00;99.90;;;;;;4994486;28;20121;-84
2021/12/23 13:08:29;;;;;;;57.30;26.75;;;0.00;99.90;;;;;;5011570;28;20198;-86
2021/12/23 13:11:17;;;;;;;61.63;29.73;;;0.00;99.90;;;;;;4979500;28;20691;-86
2021/12/23 13:13:46;;;;;;;53.35;26.38;;;0.00;99.90;;;;;;5012247;28;20056;-87
2021/12/23 13:16:15;;;;;;;68.75;29.77;;;0.00;99.90;;;;;;4993943;28;20109;-87
2021/12/23 13:18:41;;;;;;;55.30;26.35;;;0.00;99.90;;;;;;4963756;28;20054;-87
2021/12/23 13:21:08;;;;;;;56.03;26.30;;;0.10;99.90;;;;;;4962687;28;20038;-87
2021/12/23 13:23:43;;;;;;;67.47;28.60;;;0.10;99.90;;;;;;4955146;28;20956;-86
2021/12/23 13:26:18;;;;;;;66.50;29.85;;;1.30;99.90;;;;;;5008200;28;20045;-87
2021/12/23 13:28:52;;;;;;;64.43;28.40;;;0.10;99.90;;;;;;5008389;28;20122;-87
2021/12/23 13:31:24;;;;;;;65.38;29.63;;;0.10;99.90;;;;;;5022058;28;20030;-87
2021/12/23 13:34:05;;;;;;;61.75;29.08;;;0.10;99.90;;;;;;5023156;28;20129;-86
2021/12/23 13:36:37;;;;;;;67.43;27.85;;;0.10;99.90;;;;;;4992556;28;20070;-88
2021/12/23 13:39:09;;;;;;;61.20;25.85;;;1.10;99.90;;;;;;4993306;28;20039;-88
2021/12/23 13:41:44;;;;;;;60.58;27.52;;;1.00;99.90;;;;;;4963376;28;20026;-88
2021/12/23 13:44:15;;;;;;;57.25;26.27;;;1.70;99.90;;;;;;5020761;28;20539;-87